Kansas City, Missouri
Traffic Map
Current Weather Conditions
Kansas City, Missouri
Clear
Clear
37°
Feels Like: 30°
Wind Chill: 30° Ceiling: Unl
Heat Index: 37° Visibility: 9mi
Dew Point: 33° Wind: 9mph
Humidity: 86% Direction: 200° (SSW)
Pressure: 30.13in Gusts: 0mph
Raw Report DataKMKC 210554Z 20008KT 9SM CLR 03/01 A3013 RMK AO2 SLP205 T00280006 10072 20028 400830011 57006
Traffic Incident Summary
Active as of:
Severity:
Category:
InformationThere was an issue retrieving the traffic information for this location. Please try a different location or try again shortly.
Advertisements
Track Severe Weather on mobile